Wausau, Wisconsin
Current Conditions -  °F | °C
As of 8:54 AM on Saturday 25 Oct 2014 (Local Time) from KAUW Reporting Station
Clear Clear  
Wind Chill: 50°   Ceiling: Unl
Heat Index: 50°   Visibility: 10mi
Dew Point: 40°   Wind: 14mph
Humidity: 68%   Direction: 300°WNW
Pressure: 29.87"   Gusts: NA
Location:  44.96°N, 89.63°W
Report Text: KAUW 251354Z AUTO 30012KT 10SM CLR 10/04 A2987 RMK AO2 SLP120 T01000044
Loading
Personal Weather Stations






























Interactive Weather Map
Tropical Storm Tracking
New forecast layout! Learn more

10-Day Weather Forecast

Advertisements
Track Severe Weather on mobile